Port Lions, AK (99550)

6:36 PM AKDT on September 02, 2014 (GMT -0800)
Kodiak | Change Station
CLOSE
Current Station
Airport
Location: Kodiak,
Elevation: 112 ft
Nearby Weather Stations

Elev 112 ft 57.75 °N, 152.49 °W | Updated 43 minutes ago

Scattered Clouds
Scattered Clouds
62 °F
Feels Like 62 °F
N
8
Wind Variable Wind from SE

Today
High -- | Low -- °F
--% Chance of Precip.
Yesterday
High -- | Low -- °F
Precip. -- in
7:15 AM 9:07 PM
First Quarter, 57% visible
Pressure 30.02 in
Visibility 10.0 miles
Clouds Scattered Clouds 25000 ft
Dew Point 49 °F
Humidity 62%
Rainfall 0.00 in
Snow Depth Not available.
UV 2 out of 12
Pollen Not available.
Air Quality Not available.
Flu Activity Not available.
METAR PADQ 030153Z COR 13007KT 10SM SCT250 17/09 A3002 RMK AO2 SLP166 T01670094 $

More Conditions Fewer Conditions

Pressure 30.02 in
Visibility 10.0 miles
Clouds Scattered Clouds 25000 ft
Dew Point 49 °F
Humidity 62%
Rainfall 0.00 in
Snow Depth Not available.
UV 2 out of 12
Pollen Not available.
Air Quality Not available.
Flu Activity Not available.
METAR PADQ 030153Z COR 13007KT 10SM SCT250 17/09 A3002 RMK AO2 SLP166 T01670094 $

More Conditions Fewer Conditions

10-Day Weather Forecast

Almanac

Astronomy

Sep. 02, 2014 Rise Set
Actual Time 7:15 AM AKDT 9:07 PM AKDT
Civil Twilight 6:33 AM AKDT 9:48 PM AKDT
Nautical Twilight 5:41 AM AKDT 10:40 PM AKDT
Astronomical Twilight 4:37 AM AKDT 11:42 PM AKDT
Moon 4:41 PM AKDT (9/2) No Moon Set
Length of Visible Light 15h 14m
Length of Day
13h 51m
Tomorrow will be 4m 54s shorter.
First Quarter, 57% of the Moon is Illuminated
Today
First Quarter
Sep 8
Full
Sep 15
Last Quarter
Sep 24
New
Oct 1
First Quarter

Today's Extremes

State Highs State Lows

Community

WunderPhotos

Upload Photos

1,749,845 photos uploaded!

Nearby

Snow Depth

Station Depth Elevation
Mcneil Canyon 1 in 1320 ft
MF Bradley River 2 in 2300 ft
Cooper Lake 17 in 1200 ft
Grouse Creek Divide 0 in 700 ft
Summit Creek 0 in 1400 ft

Earthquake Activity

City Distance Mag. Time & Date
No recent earthquake activity has been reported nearby.
Minimum magnitude displayed is 2.5.

Coastal Water Temperatures

Place Temperature
No Stations Reporting

Nearby Weather Stations